createdAt,value
2023-05-13T00:00:52.512Z,100681.14
2023-05-13T00:01:54.690Z,100684.80
2023-05-13T00:03:01.732Z,100683.23
2023-05-13T00:04:10.266Z,100679.69
2023-05-13T00:05:12.324Z,100682.38
2023-05-13T00:06:15.986Z,100684.20
2023-05-13T00:07:21.611Z,100680.70
2023-05-13T00:08:23.896Z,100679.69
2023-05-13T00:09:28.194Z,100688.59
2023-05-13T00:10:30.414Z,100684.20
2023-05-13T00:12:49.187Z,100677.17
2023-05-13T00:13:51.218Z,100691.81
2023-05-13T00:14:53.395Z,100690.25
2023-05-13T00:15:55.635Z,100689.13
2023-05-13T00:16:58.312Z,100683.77
2023-05-13T00:18:02.412Z,100692.67
2023-05-13T00:19:04.694Z,100692.67
2023-05-13T00:20:08.364Z,100690.84
2023-05-13T00:21:18.787Z,100691.70
2023-05-13T00:22:27.052Z,100690.69
2023-05-13T00:23:32.740Z,100695.09
2023-05-13T00:24:37.873Z,100701.30
2023-05-13T00:25:40.017Z,100697.62
2023-05-13T00:26:42.276Z,100693.26
2023-05-13T00:27:44.560Z,100700.45
2023-05-13T00:28:46.649Z,100700.56
2023-05-13T00:29:48.821Z,100696.06
2023-05-13T00:30:53.945Z,100699.75
2023-05-13T00:32:03.233Z,100702.42
2023-05-13T00:33:10.184Z,100699.01
2023-05-13T00:34:14.573Z,100698.19
2023-05-13T00:35:21.390Z,100699.16
2023-05-13T00:36:23.708Z,100699.42
2023-05-13T00:37:26.393Z,100697.86
2023-05-13T00:38:28.679Z,100703.23
2023-05-13T00:39:32.205Z,100696.30
2023-05-13T00:40:38.279Z,100695.56
2023-05-13T00:41:40.694Z,100695.68
2023-05-13T00:42:42.998Z,100695.68
2023-05-13T00:43:46.076Z,100697.66
2023-05-13T00:44:49.306Z,100699.48
2023-05-13T00:45:51.598Z,100703.88
2023-05-13T00:46:54.354Z,100701.19
2023-05-13T00:47:58.292Z,100706.67
2023-05-13T00:50:13.525Z,100700.55
2023-05-13T00:51:19.178Z,100704.41
2023-05-13T00:52:27.095Z,100700.16
2023-05-13T00:53:33.005Z,100708.05
2023-05-13T00:54:37.547Z,100706.23
2023-05-13T00:55:48.940Z,100700.75
2023-05-13T00:56:57.925Z,100705.26
2023-05-13T00:58:00.128Z,100705.52
2023-05-13T00:59:02.609Z,100702.13
2023-05-13T01:00:08.269Z,100696.88
2023-05-13T01:02:58.625Z,100698.89
2023-05-13T01:04:10.718Z,100697.56
2023-05-13T01:05:42.675Z,100697.82
2023-05-13T01:06:58.022Z,100698.67
2023-05-13T01:08:04.693Z,100700.65
2023-05-13T01:09:29.047Z,100698.08
2023-05-13T01:10:51.498Z,100698.34
2023-05-13T01:11:55.284Z,100697.48
2023-05-13T01:13:00.333Z,100694.95
2023-05-13T01:15:24.968Z,100697.82
2023-05-13T01:16:35.417Z,100700.72
2023-05-13T01:17:52.579Z,100697.19
2023-05-13T01:18:59.142Z,100704.97
2023-05-13T01:20:06.693Z,100696.07
2023-05-13T01:21:13.119Z,100696.92
2023-05-13T01:22:20.099Z,100691.56
2023-05-13T01:23:34.383Z,100691.68
2023-05-13T01:24:43.569Z,100692.69
2023-05-13T01:25:53.844Z,100695.36
2023-05-13T01:26:56.375Z,100697.19
2023-05-13T01:28:04.516Z,100692.69
2023-05-13T01:29:16.294Z,100699.02
2023-05-13T01:30:24.270Z,100698.30
2023-05-13T01:32:45.636Z,100692.13
2023-05-13T01:33:48.561Z,100703.78
2023-05-13T01:34:54.487Z,100700.12
2023-05-13T01:35:57.621Z,100688.55
2023-05-13T01:37:09.267Z,100690.38
2023-05-13T01:38:15.761Z,100694.77
2023-05-13T01:39:20.185Z,100693.80
2023-05-13T01:40:32.238Z,100693.91
2023-05-13T01:41:27.851Z,100693.91
2023-05-13T01:42:36.834Z,100693.06
2023-05-13T01:43:42.388Z,100688.55
2023-05-13T01:44:45.474Z,100690.38
2023-05-13T01:45:47.638Z,100692.94
2023-05-13T01:46:50.434Z,100692.94
2023-05-13T01:47:53.635Z,100688.44
2023-05-13T01:48:56.995Z,100686.73
2023-05-13T01:49:59.545Z,100692.09
2023-05-13T01:51:02.543Z,100692.09
2023-05-13T01:52:05.074Z,100687.70
2023-05-13T01:53:09.017Z,100689.55
2023-05-13T01:54:11.951Z,100700.27
2023-05-13T01:55:16.065Z,100693.06
2023-05-13T01:56:18.797Z,100688.55
2023-05-13T01:57:21.060Z,100687.70
2023-05-13T01:58:24.328Z,100688.55
2023-05-13T01:59:26.737Z,100685.88
2023-05-13T02:00:29.637Z,100682.34
2023-05-13T02:01:31.836Z,100688.70
2023-05-13T02:02:34.082Z,100685.28
2023-05-13T02:03:36.944Z,100688.95
2023-05-13T02:04:39.698Z,100682.74
2023-05-13T02:05:42.690Z,100690.93
2023-05-13T02:06:44.978Z,100690.93
2023-05-13T02:07:47.713Z,100694.58
2023-05-13T02:08:49.881Z,100688.36
2023-05-13T02:09:52.143Z,100691.19
2023-05-13T02:10:56.205Z,100697.38
2023-05-13T02:11:59.416Z,100694.84
2023-05-13T02:13:01.654Z,100693.27
2023-05-13T02:14:03.889Z,100701.45
2023-05-13T02:15:07.564Z,100701.56
2023-05-13T02:16:18.097Z,100696.35
2023-05-13T02:17:21.778Z,100701.83
2023-05-13T02:18:24.545Z,100697.47
2023-05-13T02:19:26.924Z,100704.50
2023-05-13T02:20:29.204Z,100699.03
2023-05-13T02:21:31.853Z,100697.17
2023-05-13T02:22:34.329Z,100698.17
2023-05-13T02:23:36.498Z,100697.17
2023-05-13T02:24:39.164Z,100701.83
2023-05-13T02:25:44.022Z,100694.78
2023-05-13T02:26:46.657Z,100696.61
2023-05-13T02:27:48.723Z,100693.94
2023-05-13T02:28:50.897Z,100702.68
2023-05-13T02:29:53.796Z,100700.00
2023-05-13T02:30:56.749Z,100700.86
2023-05-13T02:31:59.149Z,100700.00
2023-05-13T02:33:02.965Z,100704.50
2023-05-13T02:34:05.306Z,100711.69
2023-05-13T02:35:08.710Z,100712.55
2023-05-13T02:36:12.089Z,100710.86
2023-05-13T02:37:14.449Z,100716.22
2023-05-13T02:38:18.907Z,100713.66
2023-05-13T02:39:21.626Z,100716.48
2023-05-13T02:40:24.305Z,100720.27
2023-05-13T02:41:26.548Z,100709.66
2023-05-13T02:42:29.017Z,100716.02
2023-05-13T02:43:31.124Z,100718.70
2023-05-13T02:44:35.253Z,100719.66
2023-05-13T02:45:39.728Z,100719.78
2023-05-13T02:46:42.609Z,100722.45
2023-05-13T02:47:44.900Z,100721.63
2023-05-13T02:48:48.132Z,100724.17
2023-05-13T02:49:50.425Z,100724.06
2023-05-13T02:50:53.304Z,100723.05
2023-05-13T02:51:55.487Z,100723.05
2023-05-13T02:52:59.477Z,100731.23
2023-05-13T02:54:02.580Z,100730.23
2023-05-13T02:55:09.517Z,100725.88
2023-05-13T02:56:12.275Z,100732.92
2023-05-13T02:57:14.532Z,100725.73
2023-05-13T02:58:17.436Z,100735.48
2023-05-13T02:59:20.333Z,100730.98
2023-05-13T03:00:23.296Z,100733.66
2023-05-13T03:01:39.475Z,100732.81
2023-05-13T03:02:41.911Z,100734.48
2023-05-13T03:03:44.400Z,100732.81
2023-05-13T03:04:46.827Z,100729.98
2023-05-13T03:05:48.844Z,100730.98
2023-05-13T03:06:51.262Z,100733.77
2023-05-13T03:07:53.631Z,100724.06
2023-05-13T03:08:55.633Z,100733.06
2023-05-13T03:09:57.733Z,100740.24
2023-05-13T03:11:00.883Z,100745.60
2023-05-13T03:12:05.453Z,100731.34
2023-05-13T03:13:07.632Z,100739.53
2023-05-13T03:14:10.668Z,100738.92
2023-05-13T03:15:14.384Z,100742.86
2023-05-13T03:16:17.526Z,100743.83
2023-05-13T03:17:21.146Z,100739.33
2023-05-13T03:18:25.104Z,100746.36
2023-05-13T03:19:28.925Z,100748.92
2023-05-13T03:20:31.816Z,100748.07
2023-05-13T03:21:35.858Z,100744.42
2023-05-13T03:22:38.890Z,100742.58
2023-05-13T03:23:42.484Z,100747.11
2023-05-13T03:24:44.783Z,100748.07
2023-05-13T03:25:47.809Z,100745.39
2023-05-13T03:26:51.631Z,100747.22
2023-05-13T03:27:54.369Z,100746.36
2023-05-13T03:28:58.911Z,100750.03
2023-05-13T03:30:01.780Z,100754.65
2023-05-13T03:31:05.161Z,100754.79
2023-05-13T03:32:09.972Z,100755.90
2023-05-13T03:33:12.868Z,100758.58
2023-05-13T03:34:15.901Z,100760.39
2023-05-13T03:35:37.901Z,100762.11
2023-05-13T03:36:54.195Z,100753.08
2023-05-13T03:37:56.534Z,100759.04
2023-05-13T03:38:59.335Z,100757.08
2023-05-13T03:40:01.937Z,100756.96
2023-05-13T03:41:05.649Z,100760.36
2023-05-13T03:42:08.384Z,100756.96
2023-05-13T03:43:11.016Z,100759.64
2023-05-13T03:44:14.652Z,100760.75
2023-05-13T03:45:23.039Z,100762.69
2023-05-13T03:46:27.448Z,100764.64
2023-05-13T03:47:30.908Z,100761.25
2023-05-13T03:48:35.035Z,100767.83
2023-05-13T03:49:37.279Z,100766.00
2023-05-13T03:50:41.420Z,100764.33
2023-05-13T03:51:43.488Z,100763.47
2023-05-13T03:52:47.109Z,100760.89
2023-05-13T03:53:51.061Z,100761.64
2023-05-13T03:54:53.118Z,100763.33
2023-05-13T03:55:55.255Z,100773.18
2023-05-13T03:56:58.155Z,100771.36
2023-05-13T03:58:00.184Z,100771.25
2023-05-13T03:59:03.021Z,100772.11
2023-05-13T04:00:07.515Z,100777.07
2023-05-13T04:01:12.039Z,100773.64
2023-05-13T04:02:16.290Z,100776.13
2023-05-13T04:03:18.863Z,100767.79
2023-05-13T04:04:21.193Z,100771.98
2023-05-13T04:05:23.357Z,100771.52
2023-05-13T04:06:25.415Z,100774.45
2023-05-13T04:07:27.709Z,100776.54
2023-05-13T04:08:29.803Z,100769.85
2023-05-13T04:09:31.953Z,100765.53
2023-05-13T04:10:34.906Z,100765.01
2023-05-13T04:11:37.236Z,100772.69
2023-05-13T04:12:39.284Z,100771.87
2023-05-13T04:13:41.425Z,100768.63
2023-05-13T04:14:44.813Z,100777.55
2023-05-13T04:15:47.469Z,100774.12
2023-05-13T04:16:50.075Z,100778.80
2023-05-13T04:17:52.250Z,100773.84
2023-05-13T04:18:54.374Z,100774.12
2023-05-13T04:19:57.755Z,100776.22
2023-05-13T04:20:59.978Z,100776.65
2023-05-13T04:22:04.597Z,100768.86
2023-05-13T04:23:06.909Z,100781.85
2023-05-13T04:24:10.268Z,100774.06
2023-05-13T04:25:12.607Z,100781.54
2023-05-13T04:26:16.972Z,100775.46
2023-05-13T04:27:19.122Z,100779.39
2023-05-13T04:28:23.187Z,100777.83
2023-05-13T04:29:26.995Z,100772.87
2023-05-13T04:30:30.121Z,100779.37
2023-05-13T04:31:32.328Z,100774.39
2023-05-13T04:32:34.891Z,100781.73
2023-05-13T04:33:37.890Z,100780.17
2023-05-13T04:34:40.424Z,100776.78
2023-05-13T04:35:43.335Z,100779.58
2023-05-13T04:36:45.688Z,100778.87
2023-05-13T04:37:47.865Z,100785.09
2023-05-13T04:38:51.786Z,100784.23
2023-05-13T04:39:54.364Z,100778.16
2023-05-13T04:40:58.671Z,100780.96
2023-05-13T04:42:03.119Z,100780.96
2023-05-13T04:43:06.726Z,100789.02
2023-05-13T04:44:10.759Z,100784.50
2023-05-13T04:45:13.024Z,100783.64
2023-05-13T04:46:17.037Z,100786.33
2023-05-13T04:47:19.104Z,100786.33
2023-05-13T04:48:21.742Z,100779.13
2023-05-13T04:49:24.000Z,100788.04
2023-05-13T04:50:26.916Z,100788.04
2023-05-13T04:51:30.201Z,100784.38
2023-05-13T04:52:33.128Z,100791.58
2023-05-13T04:53:35.867Z,100790.72
2023-05-13T04:54:40.462Z,100793.41
2023-05-13T04:55:48.381Z,100789.75
2023-05-13T04:56:51.338Z,100793.14
2023-05-13T04:57:53.539Z,100787.77
2023-05-13T04:58:55.941Z,100782.26
2023-05-13T04:59:58.699Z,100783.00
2023-05-13T05:01:00.985Z,100779.31
2023-05-13T05:02:04.149Z,100782.85
2023-05-13T05:03:06.796Z,100781.88
2023-05-13T05:04:09.671Z,100782.73
2023-05-13T05:05:13.351Z,100777.37
2023-05-13T05:06:16.858Z,100784.41
2023-05-13T05:07:19.018Z,100783.30
2023-05-13T05:08:21.302Z,100784.85
2023-05-13T05:09:25.138Z,100786.03
2023-05-13T05:10:29.064Z,100779.29
2023-05-13T05:11:33.110Z,100784.17
2023-05-13T05:12:36.971Z,100781.70
2023-05-13T05:13:39.229Z,100784.53
2023-05-13T05:14:41.539Z,100780.99
2023-05-13T05:15:43.749Z,100778.42
2023-05-13T05:16:47.276Z,100781.17
2023-05-13T05:17:49.851Z,100783.05
2023-05-13T05:18:52.054Z,100782.19
2023-05-13T05:19:54.723Z,100784.89
2023-05-13T05:20:57.073Z,100783.84
2023-05-13T05:21:59.306Z,100785.59
2023-05-13T05:23:02.580Z,100773.03
2023-05-13T05:24:06.670Z,100777.88
2023-05-13T05:25:09.968Z,100778.05
2023-05-13T05:26:12.978Z,100779.19
2023-05-13T05:27:16.978Z,100774.91
2023-05-13T05:28:19.165Z,100778.53
2023-05-13T05:29:22.132Z,100772.98
2023-05-13T05:30:25.540Z,100777.59
2023-05-13T05:31:32.536Z,100776.25
2023-05-13T05:32:36.675Z,100779.45
2023-05-13T05:33:40.448Z,100779.12
2023-05-13T05:34:42.582Z,100783.48
2023-05-13T05:35:44.860Z,100780.22
2023-05-13T05:36:49.257Z,100786.12
2023-05-13T05:37:51.506Z,100778.61
2023-05-13T05:38:54.989Z,100781.12
2023-05-13T05:39:59.095Z,100792.63
2023-05-13T05:41:02.229Z,100788.02
2023-05-13T05:42:05.106Z,100781.70
2023-05-13T05:43:07.856Z,100784.71
2023-05-13T05:44:11.408Z,100781.59
2023-05-13T05:45:14.272Z,100781.48
2023-05-13T05:46:18.925Z,100784.57
2023-05-13T05:47:21.181Z,100782.60
2023-05-13T05:48:23.756Z,100787.04
2023-05-13T05:49:26.305Z,100782.67
2023-05-13T05:50:29.144Z,100786.44
2023-05-13T05:51:31.520Z,100779.84
2023-05-13T05:52:35.435Z,100775.98
2023-05-13T05:53:38.184Z,100776.05
2023-05-13T05:54:41.383Z,100772.68
2023-05-13T05:55:43.535Z,100775.79
2023-05-13T05:56:46.060Z,100779.30
2023-05-13T05:57:48.191Z,100781.31
2023-05-13T05:58:50.999Z,100785.23
2023-05-13T05:59:53.193Z,100779.27
2023-05-13T06:00:55.449Z,100780.66
2023-05-13T06:01:57.648Z,100776.09
2023-05-13T06:03:00.102Z,100784.94
2023-05-13T06:04:04.022Z,100781.86
2023-05-13T06:05:07.999Z,100775.36
2023-05-13T06:06:12.379Z,100774.33
2023-05-13T06:07:14.557Z,100775.66
2023-05-13T06:08:17.253Z,100781.05
2023-05-13T06:09:19.811Z,100788.73
2023-05-13T06:10:22.237Z,100777.41
2023-05-13T06:11:24.623Z,100781.66
2023-05-13T06:12:26.683Z,100791.83
2023-05-13T06:13:29.932Z,100790.48
2023-05-13T06:14:32.269Z,100797.09
2023-05-13T06:15:34.931Z,100790.06
2023-05-13T06:16:37.303Z,100797.11
2023-05-13T06:17:40.055Z,100790.59
2023-05-13T06:18:43.197Z,100787.78
2023-05-13T06:19:46.550Z,100784.80
2023-05-13T06:20:49.400Z,100784.50
2023-05-13T06:21:53.380Z,100791.00
2023-05-13T06:22:55.668Z,100790.40
2023-05-13T06:24:01.497Z,100789.41
2023-05-13T06:25:05.046Z,100789.10
2023-05-13T06:26:07.765Z,100791.80
2023-05-13T06:27:11.257Z,100785.53
2023-05-13T06:28:13.940Z,100785.55
2023-05-13T06:29:17.097Z,100792.15
2023-05-13T06:30:19.978Z,100793.49
2023-05-13T06:31:23.115Z,100792.34
2023-05-13T06:32:25.254Z,100791.82
2023-05-13T06:33:27.564Z,100787.75
2023-05-13T06:34:31.412Z,100790.97
2023-05-13T06:35:34.993Z,100787.08
2023-05-13T06:36:39.588Z,100794.86
2023-05-13T06:37:43.454Z,100792.64
2023-05-13T06:38:46.940Z,100795.01
2023-05-13T06:39:49.990Z,100799.93
2023-05-13T06:40:53.543Z,100795.84
2023-05-13T06:41:57.594Z,100785.66
2023-05-13T06:43:02.042Z,100799.17
2023-05-13T06:44:06.951Z,100794.59
2023-05-13T06:45:25.142Z,100791.88
2023-05-13T06:46:27.556Z,100790.67
2023-05-13T06:47:29.710Z,100786.95
2023-05-13T06:48:32.425Z,100791.16
2023-05-13T06:49:35.717Z,100788.92
2023-05-13T06:50:38.634Z,100792.66
2023-05-13T06:51:40.582Z,100789.24
2023-05-13T06:52:42.586Z,100790.27
2023-05-13T06:53:44.594Z,100792.30
2023-05-13T06:54:46.729Z,100783.66
2023-05-13T06:55:50.539Z,100786.69
2023-05-13T06:56:56.213Z,100789.22
2023-05-13T06:57:58.694Z,100784.02
2023-05-13T06:59:01.348Z,100784.72
2023-05-13T07:00:05.607Z,100788.83
2023-05-13T07:01:08.365Z,100793.92
2023-05-13T07:02:10.543Z,100788.88
2023-05-13T07:03:12.626Z,100790.44
2023-05-13T07:04:15.417Z,100786.56
2023-05-13T07:05:17.842Z,100787.08
2023-05-13T07:06:20.459Z,100787.41
2023-05-13T07:07:22.657Z,100775.39
2023-05-13T07:08:24.686Z,100786.73
2023-05-13T07:09:27.762Z,100780.11
2023-05-13T07:10:30.055Z,100778.93
2023-05-13T07:11:31.947Z,100785.02
2023-05-13T07:12:35.142Z,100782.95
2023-05-13T07:13:39.210Z,100781.92
2023-05-13T07:14:41.625Z,100785.27
2023-05-13T07:15:43.710Z,100781.67
2023-05-13T07:16:47.196Z,100779.59
2023-05-13T07:17:49.467Z,100772.27
2023-05-13T07:18:52.252Z,100773.10
2023-05-13T07:19:54.824Z,100778.48
2023-05-13T07:20:57.045Z,100780.30
2023-05-13T07:21:59.181Z,100773.16
2023-05-13T07:23:01.236Z,100776.83
2023-05-13T07:24:05.951Z,100774.25
2023-05-13T07:25:09.873Z,100775.41
2023-05-13T07:26:12.848Z,100777.41
2023-05-13T07:27:15.021Z,100774.79
2023-05-13T07:28:18.784Z,100776.78
2023-05-13T07:29:21.273Z,100776.09
2023-05-13T07:30:24.505Z,100780.81
2023-05-13T07:31:28.367Z,100771.09
2023-05-13T07:32:30.761Z,100776.81
2023-05-13T07:33:33.598Z,100776.25
2023-05-13T07:34:36.671Z,100766.52
2023-05-13T07:35:39.969Z,100776.02
2023-05-13T07:36:42.416Z,100769.16
2023-05-13T07:37:45.754Z,100770.50
2023-05-13T07:38:48.210Z,100777.89
2023-05-13T07:39:50.649Z,100782.79
2023-05-13T07:40:53.108Z,100778.66
2023-05-13T07:41:55.262Z,100772.84
2023-05-13T07:42:57.441Z,100784.20
2023-05-13T07:43:59.664Z,100776.53
2023-05-13T07:45:02.914Z,100780.55
2023-05-13T07:46:05.951Z,100780.21
2023-05-13T07:47:08.166Z,100777.13
2023-05-13T07:48:10.842Z,100778.42
2023-05-13T07:50:32.085Z,100768.89
2023-05-13T07:51:35.814Z,100777.95
2023-05-13T07:52:37.979Z,100771.30
2023-05-13T07:53:40.047Z,100778.06
2023-05-13T07:54:42.086Z,100772.42
2023-05-13T07:55:44.296Z,100769.33
2023-05-13T07:56:46.687Z,100768.11
2023-05-13T07:57:50.401Z,100772.52
2023-05-13T07:58:52.679Z,100762.29
2023-05-13T07:59:54.867Z,100775.52
2023-05-13T08:02:27.637Z,100766.97
2023-05-13T08:03:31.121Z,100767.89
2023-05-13T08:04:34.977Z,100767.52
2023-05-13T08:05:37.952Z,100772.58
2023-05-13T08:06:43.949Z,100767.62
2023-05-13T08:07:46.762Z,100766.02
2023-05-13T08:08:48.879Z,100768.35
2023-05-13T08:09:51.103Z,100775.11
2023-05-13T08:10:53.827Z,100776.44
2023-05-13T08:11:55.991Z,100764.32
2023-05-13T08:12:58.315Z,100775.67
2023-05-13T08:14:00.572Z,100765.23
2023-05-13T08:15:05.032Z,100771.98
2023-05-13T08:16:07.878Z,100763.23
2023-05-13T08:17:10.966Z,100770.16
2023-05-13T08:18:15.021Z,100773.35
2023-05-13T08:19:18.233Z,100774.67
2023-05-13T08:20:20.871Z,100772.59
2023-05-13T08:21:23.046Z,100774.25
2023-05-13T08:22:26.254Z,100765.91
2023-05-13T08:23:43.308Z,100767.58
2023-05-13T08:24:33.586Z,100773.70
2023-05-13T08:25:36.879Z,100770.59
2023-05-13T08:26:40.477Z,100775.65
2023-05-13T08:27:45.275Z,100763.52
2023-05-13T08:29:51.414Z,100763.77
2023-05-13T08:30:56.076Z,100765.27
2023-05-13T08:31:58.525Z,100765.27
2023-05-13T08:33:02.289Z,100765.44
2023-05-13T08:34:05.395Z,100769.61
2023-05-13T08:35:09.070Z,100762.85
2023-05-13T08:36:13.050Z,100764.76
2023-05-13T08:38:24.446Z,100760.38
2023-05-13T08:39:26.396Z,100756.89
2023-05-13T08:40:29.658Z,100762.55
2023-05-13T08:41:35.231Z,100757.10
2023-05-13T08:42:45.179Z,100762.34
2023-05-13T08:43:48.087Z,100750.42
2023-05-13T08:44:53.073Z,100753.96
2023-05-13T08:45:56.380Z,100752.09
2023-05-13T08:48:43.284Z,100749.31
2023-05-13T08:49:45.911Z,100751.53
2023-05-13T08:50:49.137Z,100748.80
2023-05-13T08:53:00.978Z,100748.28
2023-05-13T08:55:13.893Z,100741.60
2023-05-13T08:56:18.796Z,100740.89
2023-05-13T08:57:21.093Z,100739.53
2023-05-13T08:58:33.722Z,100744.00
2023-05-13T08:59:35.838Z,100734.38
2023-05-13T09:00:38.823Z,100736.25
2023-05-13T09:01:42.136Z,100735.99
2023-05-13T09:02:44.335Z,100742.39
2023-05-13T09:05:05.418Z,100737.05
2023-05-13T09:06:08.803Z,100739.67
2023-05-13T09:07:12.273Z,100729.06
2023-05-13T09:08:14.825Z,100729.33
2023-05-13T09:09:17.094Z,100727.92
2023-05-13T09:10:20.995Z,100729.23
2023-05-13T09:11:23.424Z,100728.69
2023-05-13T09:12:45.574Z,100730.81
2023-05-13T09:15:21.668Z,100731.03
2023-05-13T09:16:24.028Z,100729.28
2023-05-13T09:17:26.790Z,100722.78
2023-05-13T09:18:30.499Z,100731.63
2023-05-13T09:19:33.875Z,100725.33
2023-05-13T09:20:36.880Z,100721.55
2023-05-13T09:21:39.895Z,100713.21
2023-05-13T09:24:08.556Z,100721.50
2023-05-13T09:25:13.228Z,100709.89
2023-05-13T09:26:30.852Z,100715.34
2023-05-13T09:28:51.808Z,100708.73
2023-05-13T09:30:00.523Z,100712.36
2023-05-13T09:31:02.948Z,100709.17
2023-05-13T09:32:09.102Z,100708.33
2023-05-13T09:33:18.499Z,100696.80
2023-05-13T09:34:35.382Z,100700.58
2023-05-13T09:35:39.790Z,100707.90
2023-05-13T09:36:42.060Z,100695.95
2023-05-13T09:37:46.184Z,100694.08
2023-05-13T09:38:51.913Z,100692.20
2023-05-13T09:41:10.652Z,100684.94
2023-05-13T09:42:16.913Z,100689.23
2023-05-13T09:43:21.151Z,100682.94
2023-05-13T09:44:23.737Z,100685.88
2023-05-13T09:45:27.375Z,100687.53
2023-05-13T09:46:31.367Z,100682.09
2023-05-13T09:47:35.908Z,100674.98
2023-05-13T09:48:42.806Z,100675.80
2023-05-13T09:49:49.619Z,100676.64
2023-05-13T09:50:59.366Z,100674.77
2023-05-13T09:52:08.469Z,100669.16
2023-05-13T09:53:19.265Z,100674.59
2023-05-13T09:54:33.005Z,100673.08
2023-05-13T09:55:41.732Z,100664.48
2023-05-13T09:56:53.447Z,100667.20
2023-05-13T09:59:24.497Z,100661.24
2023-05-13T10:00:33.166Z,100671.16
2023-05-13T10:01:39.798Z,100661.09
2023-05-13T10:02:43.377Z,100670.48
2023-05-13T10:03:46.368Z,100667.51
2023-05-13T10:04:50.733Z,100657.65
2023-05-13T10:05:54.360Z,100658.67
2023-05-13T10:07:02.849Z,100663.09
2023-05-13T10:08:09.855Z,100655.95
2023-05-13T10:09:15.285Z,100650.72
2023-05-13T10:10:18.708Z,100650.25
2023-05-13T10:11:24.027Z,100654.59
2023-05-13T10:12:31.401Z,100656.00
2023-05-13T10:13:37.971Z,100656.20
2023-05-13T10:14:46.017Z,100653.66
2023-05-13T10:15:54.571Z,100648.22
2023-05-13T10:16:59.379Z,100652.84
2023-05-13T10:18:07.518Z,100648.89
2023-05-13T10:19:14.823Z,100648.69
2023-05-13T10:20:33.071Z,100647.66
2023-05-13T10:21:45.523Z,100652.25
2023-05-13T10:25:09.994Z,100644.30
2023-05-13T10:26:17.605Z,100643.87
2023-05-13T10:27:21.923Z,100655.13
2023-05-13T10:29:37.475Z,100643.69
2023-05-13T10:30:44.606Z,100640.80
2023-05-13T10:31:51.333Z,100643.52
2023-05-13T10:32:57.625Z,100637.27
2023-05-13T10:34:01.826Z,100643.72
2023-05-13T10:36:47.442Z,100644.45
2023-05-13T10:38:23.720Z,100638.66
2023-05-13T10:39:51.399Z,100637.44
2023-05-13T10:42:35.649Z,100630.53
2023-05-13T10:43:42.940Z,100634.42
2023-05-13T10:44:53.632Z,100641.35
2023-05-13T10:46:02.732Z,100632.34
2023-05-13T10:47:09.855Z,100630.48
2023-05-13T10:48:17.177Z,100631.50
2023-05-13T10:49:35.973Z,100626.70
2023-05-13T10:52:21.482Z,100623.86
2023-05-13T10:55:04.515Z,100621.73
2023-05-13T10:56:08.988Z,100635.83
2023-05-13T10:57:13.586Z,100627.88
2023-05-13T10:58:20.114Z,100629.75
2023-05-13T10:59:22.621Z,100627.41
2023-05-13T11:00:30.112Z,100625.71
2023-05-13T11:01:37.625Z,100634.25
2023-05-13T11:02:42.891Z,100632.75
2023-05-13T11:03:53.259Z,100631.27
2023-05-13T11:05:01.845Z,100623.48
2023-05-13T11:06:22.418Z,100630.62
2023-05-13T11:07:24.712Z,100624.33
2023-05-13T11:08:44.080Z,100624.33
2023-05-13T11:11:45.818Z,100616.63
2023-05-13T11:13:08.819Z,100621.50
2023-05-13T11:14:16.896Z,100617.55
2023-05-13T11:15:23.916Z,100621.13
2023-05-13T11:16:27.741Z,100627.41
2023-05-13T11:18:45.050Z,100614.80
2023-05-13T11:19:50.408Z,100621.59
2023-05-13T11:20:53.914Z,100614.45
2023-05-13T11:22:17.360Z,100623.67
2023-05-13T11:23:21.111Z,100620.27
2023-05-13T11:24:26.881Z,100614.84
2023-05-13T11:25:29.013Z,100618.61
2023-05-13T11:26:50.138Z,100620.66
2023-05-13T11:27:55.464Z,100632.38
2023-05-13T11:29:06.851Z,100611.86
2023-05-13T11:31:53.477Z,100607.79
2023-05-13T11:33:00.613Z,100610.56
2023-05-13T11:34:11.532Z,100618.72
2023-05-13T11:35:27.678Z,100617.88
2023-05-13T11:36:30.915Z,100607.00
2023-05-13T11:37:33.553Z,100601.73
2023-05-13T11:38:37.025Z,100611.80
2023-05-13T11:39:51.828Z,100614.69
2023-05-13T11:40:55.328Z,100605.69
2023-05-13T11:42:14.392Z,100607.76
2023-05-13T11:43:21.114Z,100610.68
2023-05-13T11:44:28.164Z,100609.63
2023-05-13T11:45:31.366Z,100608.78
2023-05-13T11:46:36.586Z,100605.42
2023-05-13T11:47:46.753Z,100598.45
2023-05-13T11:48:49.291Z,100605.33
2023-05-13T11:49:54.632Z,100601.29
2023-05-13T11:50:58.964Z,100594.94
2023-05-13T11:52:04.979Z,100593.82
2023-05-13T11:53:11.140Z,100588.09
2023-05-13T11:54:16.540Z,100601.23
2023-05-13T11:55:32.850Z,100592.44
2023-05-13T11:56:40.177Z,100594.47
2023-05-13T11:57:48.350Z,100591.11
2023-05-13T11:58:50.580Z,100586.52
2023-05-13T12:00:05.377Z,100590.91
2023-05-13T12:01:15.480Z,100597.19
2023-05-13T12:02:22.021Z,100588.02
2023-05-13T12:03:31.519Z,100578.00
2023-05-13T12:04:33.780Z,100579.50
2023-05-13T12:05:36.393Z,100583.70
2023-05-13T12:06:45.957Z,100577.05
2023-05-13T12:07:48.467Z,100585.67
2023-05-13T12:08:54.922Z,100577.15
2023-05-13T12:10:03.748Z,100580.50
2023-05-13T12:11:07.185Z,100582.47
2023-05-13T12:12:13.379Z,100582.06
2023-05-13T12:13:17.744Z,100583.59
2023-05-13T12:14:20.502Z,100579.64
2023-05-13T12:16:35.408Z,100571.45
2023-05-13T12:17:40.627Z,100576.16
2023-05-13T12:18:46.742Z,100576.84
2023-05-13T12:20:11.775Z,100577.48
2023-05-13T12:21:16.540Z,100571.84
2023-05-13T12:22:22.512Z,100574.17
2023-05-13T12:23:25.862Z,100572.30
2023-05-13T12:25:48.856Z,100566.57
2023-05-13T12:26:55.904Z,100564.73
2023-05-13T12:27:59.541Z,100560.33
2023-05-13T12:29:06.895Z,100571.41
2023-05-13T12:30:16.507Z,100570.94
2023-05-13T12:31:21.855Z,100569.41
2023-05-13T12:32:24.384Z,100562.66
2023-05-13T12:33:31.633Z,100574.11
2023-05-13T12:34:35.267Z,100570.75
2023-05-13T12:35:39.380Z,100567.56
2023-05-13T12:36:42.306Z,100563.56
2023-05-13T12:37:49.457Z,100572.73
2023-05-13T12:39:03.585Z,100571.24
2023-05-13T12:40:13.900Z,100568.05
2023-05-13T12:41:19.734Z,100569.48
2023-05-13T12:43:37.340Z,100569.07
2023-05-13T12:45:58.115Z,100562.08
2023-05-13T12:47:01.535Z,100561.61
2023-05-13T12:48:05.059Z,100565.09
2023-05-13T12:49:08.830Z,100560.58
2023-05-13T12:50:15.339Z,100568.41
2023-05-13T12:51:19.254Z,100562.70
2023-05-13T12:52:26.723Z,100568.50
2023-05-13T12:53:30.072Z,100560.73
2023-05-13T12:54:33.687Z,100565.71
2023-05-13T12:55:37.469Z,100566.08
2023-05-13T12:56:44.297Z,100561.87
2023-05-13T12:58:02.535Z,100558.47
2023-05-13T12:59:04.876Z,100568.51
2023-05-13T13:00:16.445Z,100564.30
2023-05-13T13:01:28.899Z,100561.95
2023-05-13T13:02:33.467Z,100562.31